createdAt,value
2023-03-25T00:03:53.511Z,10.19
2023-03-25T00:14:17.221Z,10.09
2023-03-25T00:24:38.386Z,10.03
2023-03-25T00:35:00.290Z,9.98
2023-03-25T00:45:21.660Z,9.91
2023-03-25T00:55:42.937Z,9.85
2023-03-25T01:06:04.704Z,9.81
2023-03-25T01:16:26.346Z,9.75
2023-03-25T01:26:47.969Z,9.71
2023-03-25T01:37:10.295Z,9.68
2023-03-25T01:47:33.604Z,9.62
2023-03-25T01:57:57.290Z,9.58
2023-03-25T02:08:19.387Z,9.54
2023-03-25T02:18:46.781Z,9.50
2023-03-25T02:29:17.601Z,9.48
2023-03-25T02:40:14.863Z,9.44
2023-03-25T02:50:44.184Z,9.43
2023-03-25T03:01:05.848Z,9.43
2023-03-25T03:11:53.804Z,9.39
2023-03-25T03:22:27.085Z,9.37
2023-03-25T03:33:26.753Z,9.32
2023-03-25T03:44:09.309Z,9.29
2023-03-25T03:54:33.654Z,9.24
2023-03-25T04:04:54.831Z,9.19
2023-03-25T04:15:16.609Z,9.16
2023-03-25T04:25:37.661Z,9.13
2023-03-25T04:36:02.344Z,9.09
2023-03-25T04:46:23.735Z,9.06
2023-03-25T04:56:45.121Z,9.02
2023-03-25T05:07:06.265Z,8.99
2023-03-25T05:17:29.975Z,8.94
2023-03-25T05:27:51.432Z,8.92
2023-03-25T05:38:18.970Z,8.90
2023-03-25T05:48:41.715Z,8.89
2023-03-25T05:59:03.775Z,8.89
2023-03-25T06:09:25.128Z,8.88
2023-03-25T06:19:46.124Z,8.88
2023-03-25T06:30:12.606Z,8.88
2023-03-25T06:40:35.466Z,8.92
2023-03-25T06:50:58.290Z,8.92
2023-03-25T07:01:19.790Z,8.95
2023-03-25T07:11:40.950Z,8.97
2023-03-25T07:22:02.287Z,8.97
2023-03-25T07:32:23.670Z,8.97
2023-03-25T07:42:45.886Z,8.98
2023-03-25T07:53:10.739Z,8.99
2023-03-25T08:03:32.349Z,9.00
2023-03-25T08:13:53.838Z,9.01
2023-03-25T08:24:15.597Z,8.99
2023-03-25T08:34:40.048Z,8.96
2023-03-25T08:45:01.470Z,8.98
2023-03-25T08:55:22.712Z,8.98
2023-03-25T09:05:44.021Z,8.99
2023-03-25T09:16:05.473Z,9.04
2023-03-25T09:26:27.394Z,9.10
2023-03-25T09:36:48.605Z,9.14
2023-03-25T09:47:14.862Z,9.16
2023-03-25T09:57:46.598Z,9.19
2023-03-25T10:08:16.800Z,9.22
2023-03-25T10:18:43.765Z,9.33
2023-03-25T10:29:10.372Z,9.43
2023-03-25T10:39:40.240Z,9.46
2023-03-25T10:50:01.894Z,9.52
2023-03-25T11:00:26.460Z,9.63
2023-03-25T11:10:49.734Z,9.68
2023-03-25T11:21:14.822Z,9.79
2023-03-25T11:31:37.729Z,9.94
2023-03-25T11:41:59.253Z,10.05
2023-03-25T11:52:25.394Z,10.20
2023-03-25T12:02:46.938Z,10.28
2023-03-25T12:13:32.750Z,10.37
2023-03-25T12:24:22.452Z,10.47
2023-03-25T12:35:21.291Z,10.59
2023-03-25T12:46:00.299Z,10.70
2023-03-25T12:56:33.419Z,10.79
2023-03-25T13:07:04.496Z,10.82
2023-03-25T13:17:30.316Z,10.88
2023-03-25T13:27:53.436Z,10.88
2023-03-25T13:38:27.416Z,10.88
2023-03-25T13:49:03.673Z,10.94
2023-03-25T13:59:26.188Z,10.93
2023-03-25T14:10:09.399Z,10.90
2023-03-25T14:20:34.858Z,10.75
2023-03-25T14:31:17.021Z,10.49
2023-03-25T14:42:04.027Z,10.30
2023-03-25T14:52:46.945Z,10.21
2023-03-25T15:03:16.745Z,10.22
2023-03-25T15:13:53.588Z,10.19
2023-03-25T15:24:17.041Z,10.15
2023-03-25T15:34:56.931Z,10.10
2023-03-25T15:45:38.936Z,10.03
2023-03-25T15:56:14.228Z,10.00
2023-03-25T16:06:42.159Z,9.91
2023-03-25T16:17:05.910Z,9.81
2023-03-25T16:27:32.215Z,9.71
2023-03-25T16:38:00.135Z,9.60
2023-03-25T16:48:31.968Z,9.56
2023-03-25T16:59:26.273Z,9.46
2023-03-25T17:09:51.736Z,9.37
2023-03-25T17:20:23.528Z,9.35
2023-03-25T17:30:46.226Z,9.29
2023-03-25T17:41:09.284Z,9.15
2023-03-25T17:51:31.356Z,8.98
2023-03-25T18:01:52.899Z,8.90
2023-03-25T18:12:14.207Z,8.81
2023-03-25T18:22:35.688Z,8.71
2023-03-25T18:32:57.073Z,8.66
2023-03-25T18:43:18.848Z,8.60
2023-03-25T18:53:41.191Z,8.51
2023-03-25T19:04:02.663Z,8.48
2023-03-25T19:14:24.084Z,8.41
2023-03-25T19:24:47.114Z,8.37
2023-03-25T19:35:10.579Z,8.29
2023-03-25T19:45:32.777Z,8.25
2023-03-25T19:55:55.171Z,8.23
2023-03-25T20:06:16.988Z,8.16
2023-03-25T20:16:38.897Z,8.09
2023-03-25T20:27:00.026Z,8.07
2023-03-25T20:37:21.239Z,8.00
2023-03-25T20:47:43.274Z,8.02
2023-03-25T20:58:04.944Z,8.14
2023-03-25T21:08:30.512Z,7.99
2023-03-25T21:18:52.943Z,7.99
2023-03-25T21:29:14.017Z,7.83
2023-03-25T21:39:35.741Z,7.80
2023-03-25T21:49:56.926Z,7.79
2023-03-25T22:00:19.970Z,7.73
2023-03-25T22:10:41.386Z,7.65
2023-03-25T22:21:08.473Z,7.68
2023-03-25T22:31:31.941Z,7.60
2023-03-25T22:41:53.777Z,7.55
2023-03-25T22:52:14.764Z,7.51
2023-03-25T23:02:35.869Z,7.50
2023-03-25T23:12:57.218Z,7.49
2023-03-25T23:23:22.368Z,7.40
2023-03-25T23:33:43.963Z,7.39
2023-03-25T23:44:05.968Z,7.36
2023-03-25T23:54:27.842Z,7.32
